Terminal Aerodrome Forecast
Issued by NWS Greer, SC

Home | Current Version | Previous Version | Text Only | Print | Product List | Glossary On
Versions: 1 2 3 4 5 6 7 8 9 10 11 12 13 14 15 16 17 18 19 20 21
000
FTUS42 KGSP 041225 AAB
TAFGSP
TAF AMD
KGSP 041225Z 0412/0512 20012G17KT 3/4SM BR OVC002
      TEMPO 0412/0414 2SM BR
     FM041500 22011KT P6SM OVC003
     FM041600 22013KT P6SM BKN014
     FM041900 22014G22KT P6SM SCT060
     FM050500 22010KT P6SM BKN021=

USA.gov is the U.S. government's official web portal to all federal, state and local government web resources and services.